Station: Charlton  

  Atmospheric Gas Attenuation - ITU Rec 676-11   ----------------- dB/100km -----------------
Date Time Temp RH % AH g/m3 Dew Point Wind Direction Speed kph Gust kph Barometer mB Rainfall Since 9am 24GHz 47GHz 76GHz 122GHz 134GHz 241GHz
08/05 12:40 17.5 61 9.09 9.9 11 15 1024.7 0 20.4 26.0 40.4 105.9 101.0 348.0
08/05 12:30 17.3 58 8.54 9 17 33 1024.7 0 19.3 25.2 38.4 100.5 94.2 324.2
08/05 12:20 17.1 61 8.88 9.5 19 24 1024.8 0 20.0 25.8 39.8 104.3 98.8 340.3
08/05 12:10 17.2 64 9.37 10.3 15 24 1024.8 0 21.0 26.6 41.7 109.3 105.0 362.0
08/05 12:00 17 62 8.97 9.7 19 35 1024.9 0 20.2 26.0 40.2 105.3 100.1 344.8
08/05 11:50 17 61 8.83 9.4 20 28 1024.9 0 19.9 25.8 39.6 103.9 98.3 338.5
08/05 11:40 17.4 63 9.34 10.3 15 24 1025 0 21.0 26.5 41.4 108.7 104.4 359.8
08/05 11:30 16.9 66 9.49 10.5 15 30 1025.1 0 21.3 26.9 42.3 111.0 107.0 369.0
08/05 11:20 16.1 69 9.46 10.4 13 17 1025.3 0 21.3 27.1 42.6 111.8 107.8 371.4
08/05 11:10 15.7 69 9.23 10 15 20 1025.2 0 20.8 26.8 41.9 109.9 105.3 362.6
08/05 11:00 15.5 69 9.12 9.8 17 32 1025.2 0 20.6 26.7 41.6 109.0 104.1 358.4
08/05 10:50 15.5 68 8.99 9.6 20 24 1025.3 0 20.3 26.5 41.0 107.6 102.4 352.4
08/05 10:40 15.5 69 9.12 9.8 17 26 1025.1 0 20.6 26.7 41.6 109.0 104.1 358.4
08/05 10:30 15.8 70 9.42 10.3 15 28 1025.3 0 21.2 27.1 42.6 111.8 107.7 371.0
08/05 10:20 15.3 70 9.14 9.9 19 22 1025.4 0 20.7 26.8 41.8 109.5 104.6 360.3
08/05 10:10 15.1 72 9.29 10.1 15 17 1025.7 0 21.0 27.1 42.5 111.4 106.9 368.3
08/05 10:00 15 73 9.36 10.2 15 28 1025.7 0 21.1 27.2 42.8 112.4 108.0 372.1
08/05 09:50 14.5 75 9.33 10.1 17 24 1025.8 0 21.1 27.4 43.0 112.8 108.3 373.1
08/05 09:40 14.3 77 9.46 10.3 20 28 1025.8 0 21.4 27.6 43.6 114.5 110.3 380.2
08/05 09:30 14.3 79 9.71 10.7 13 24 1025.6 0 21.9 28.0 44.7 117.2 113.8 392.1
08/05 09:20 13.8 81 9.65 10.6 15 20 1025.8 0 21.8 28.1 44.7 117.3 113.7 391.8
08/05 09:10 13.5 83 9.71 10.7 20 28 1025.6 0 22.0 28.3 45.1 118.4 114.9 396.2
08/05 09:00 13.1 86 9.81 10.8 19 32 1025.4 0 22.2 28.6 45.8 120.2 116.9 403.1
08/05 08:50 12.7 88 9.8 10.8 22 33 1025.3 0 22.2 28.7 45.9 120.7 117.4 404.6
08/05 08:40 12.6 89 9.85 10.8 17 22 1025.1 0 22.3 28.8 46.2 121.4 118.2 407.6
08/05 08:30 12.2 91 9.82 10.8 17 26 1024.9 0 22.3 28.9 46.3 121.6 118.4 408.1
08/05 08:20 12 92 9.81 10.7 11 15 1024.9 0 22.3 28.9 46.4 121.8 118.6 408.7
08/05 08:10 11.9 93 9.85 10.8 17 24 1024.9 0 22.4 29.0 46.6 122.4 119.3 411.2
08/05 08:00 11.7 94 9.83 10.8 15 28 1024.9 0 22.3 29.1 46.6 122.5 119.3 411.3
08/05 07:50 11.3 97 9.9 10.8 13 19 1024.9 0 22.5 29.3 47.2 124.0 121.0 416.9
08/05 07:40 10.9 97 9.65 10.4 11 13 1024.8 0 22.0 29.0 46.3 121.7 118.0 406.5
08/05 07:30 11 97 9.71 10.5 11 20 1024.8 0 22.1 29.1 46.5 122.2 118.7 408.9
08/05 07:20 11 96 9.61 10.4 11 13 1024.7 0 21.9 28.9 46.1 121.0 117.2 403.9
08/05 07:10 11.2 96 9.73 10.6 11 13 1024.7 0 22.1 29.1 46.5 122.1 118.7 408.9
08/05 07:00 11.2 95 9.63 10.4 11 19 1024.7 0 21.9 28.9 46.1 121.0 117.2 403.8
08/05 06:50 11.1 93 9.37 10 11 15 1024.6 0 21.4 28.5 45.0 118.1 113.7 391.4
08/05 06:40 11.3 92 9.39 10 11 13 1024.3 0 21.4 28.4 44.9 118.0 113.6 391.2
08/05 06:30 11.6 92 9.56 10.3 13 22 1024.3 0 21.7 28.6 45.5 119.5 115.6 398.1
08/05 06:20 11.6 92 9.56 10.3 13 15 1024.3 0 21.7 28.6 45.5 119.5 115.6 398.1
08/05 06:10 11.6 91 9.46 10.2 11 15 1024.2 0 21.5 28.4 45.1 118.3 114.1 393.2
08/05 06:00 11.8 90 9.47 10.2 15 28 1024.1 0 21.5 28.4 45.0 118.1 114.0 392.6
08/05 05:50 11.9 89 9.43 10.1 22 26 1024.1 0 21.5 28.3 44.8 117.5 113.3 390.1
08/05 05:40 11.9 89 9.43 10.1 20 32 1024 0 21.5 28.3 44.8 117.5 113.3 390.1
08/05 05:30 11.9 89 9.43 10.1 17 32 1023.8 0 21.5 28.3 44.7 117.5 113.2 390.0
08/05 05:20 11.8 89 9.37 10 11 17 1023.8 0 21.3 28.2 44.5 116.9 112.5 387.6
08/05 05:10 11.7 89 9.31 9.9 15 20 1023.7 0 21.2 28.1 44.3 116.4 111.8 385.1
08/05 05:00 11.6 90 9.36 10 15 26 1023.6 0 21.3 28.2 44.6 117.1 112.7 388.0
08/05 04:50 11.6 90 9.36 10 15 24 1023.5 0 21.3 28.2 44.6 117.1 112.7 388.0
08/05 04:40 11.4 90 9.24 9.8 19 28 1023.4 0 21.1 28.1 44.2 116.0 111.3 383.1
08/05 04:30 11.3 90 9.18 9.7 17 26 1023.4 0 20.9 28.0 44.0 115.5 110.6 380.6
08/05 04:20 11.2 90 9.12 9.6 17 24 1023.3 0 20.8 27.9 43.8 114.9 109.9 378.1
08/05 04:10 11.2 90 9.12 9.6 17 20 1023.4 0 20.8 27.9 43.8 114.9 109.9 378.1
08/05 04:00 11.2 89 9.02 9.5 17 28 1023.3 0 20.6 27.8 43.4 113.8 108.5 373.2
08/05 03:50 11.1 88 8.87 9.2 17 24 1023.5 0 20.3 27.6 42.8 112.3 106.5 366.4
08/05 03:40 11 88 8.81 9.1 17 24 1023.5 0 20.2 27.5 42.6 111.7 105.8 363.9
08/05 03:30 10.9 87 8.66 8.8 15 28 1023.4 0 19.8 27.3 42.0 110.2 103.9 357.1
08/05 03:20 11 87 8.71 8.9 15 20 1023.7 0 20.0 27.3 42.2 110.6 104.4 359.1
08/05 03:10 10.9 87 8.66 8.8 13 15 1023.8 0 19.8 27.3 42.0 110.2 103.9 357.2
08/05 03:00 10.8 87 8.6 8.7 15 26 1023.9 0 19.7 27.2 41.8 109.7 103.2 354.8
08/05 02:50 10.7 86 8.45 8.5 11 15 1023.9 0 19.4 27.0 41.3 108.1 101.3 348.0
08/05 02:40 10.8 86 8.5 8.6 17 22 1023.9 0 19.5 27.0 41.4 108.6 101.8 349.9
08/05 02:30 10.8 86 8.5 8.6 15 24 1023.9 0 19.5 27.0 41.4 108.6 101.8 349.9
08/05 02:20 10.8 86 8.5 8.6 13 19 1024.2 0 19.5 27.0 41.4 108.6 101.8 350.0
08/05 02:10 10.8 86 8.5 8.6 13 17 1024.3 0 19.5 27.0 41.4 108.6 101.9 350.0
08/05 02:00 10.8 86 8.5 8.6 15 24 1024.4 0 19.5 27.1 41.4 108.6 101.9 350.1
08/05 01:50 10.5 86 8.34 8.3 15 22 1024.4 0 19.2 26.9 40.9 107.2 100.0 343.7
08/05 01:40 10.5 86 8.34 8.3 13 15 1024.5 0 19.2 26.9 40.9 107.3 100.1 343.7
08/05 01:30 10.5 85 8.25 8.1 19 30 1024.5 0 19.0 26.7 40.5 106.2 98.8 339.4
08/05 01:20 10.5 84 8.15 7.9 17 26 1024.5 0 18.8 26.6 40.1 105.1 97.4 334.6
08/05 01:10 10.6 83 8.1 7.8 13 17 1024.4 0 18.7 26.4 39.9 104.4 96.6 331.7
08/05 01:00 10.8 82 8.11 7.9 17 28 1024.6 0 18.7 26.4 39.8 104.3 96.5 331.4
08/05 00:50 10.8 82 8.11 7.9 17 22 1024.8 0 18.7 26.4 39.8 104.3 96.5 331.4
08/05 00:40 10.9 82 8.16 8 24 33 1024.9 0 18.8 26.5 40.0 104.7 97.1 333.4
08/05 00:30 10.9 81 8.06 7.8 17 28 1025.1 0 18.6 26.3 39.6 103.7 95.8 328.7
08/05 00:20 10.8 81 8.01 7.7 19 26 1025.1 0 18.5 26.3 39.4 103.2 95.2 326.8
08/05 00:10 10.8 81 8.01 7.7 20 24 1025.1 0 18.5 26.3 39.4 103.2 95.2 326.8
08/05 00:00 10.8 81 8.01 7.7 17 28 1025.2 0 18.5 26.3 39.4 103.3 95.2 326.8
07/05 23:50 10.7 81 7.96 7.6 13 19 1025.1 0 18.4 26.2 39.3 102.8 94.6 324.8
07/05 23:40 10.6 81 7.91 7.5 15 19 1025 0 18.3 26.1 39.1 102.4 94.1 322.8
07/05 23:30 10.6 83 8.1 7.8 15 24 1025 0 18.7 26.5 39.9 104.5 96.7 331.9
07/05 23:20 10.6 82 8.01 7.7 19 26 1025.1 0 18.5 26.3 39.5 103.5 95.5 327.6
07/05 23:10 10.6 82 8.01 7.7 19 24 1025.3 0 18.5 26.3 39.5 103.5 95.5 327.7
07/05 23:00 10.6 80 7.81 7.3 17 26 1025.3 0 18.0 26.0 38.7 101.3 92.8 318.2
07/05 22:50 10.7 77 7.56 6.8 17 20 1025.6 0 17.5 25.6 37.7 98.5 89.3 306.1
07/05 22:40 10.7 76 7.47 6.6 17 24 1025.4 0 17.3 25.4 37.3 97.5 88.1 301.8
07/05 22:30 10.7 75 7.37 6.5 17 28 1025.6 0 17.1 25.3 36.9 96.5 86.8 297.2
07/05 22:20 10.5 74 7.18 6.1 15 20 1025.7 0 16.7 25.0 36.2 94.7 84.5 289.1
07/05 22:10 10.5 73 7.08 5.9 19 22 1025.8 0 16.5 24.8 35.8 93.6 83.2 284.5
07/05 22:00 10.5 73 7.08 5.9 13 22 1025.8 0 16.5 24.8 35.8 93.6 83.2 284.5
07/05 21:50 10.4 72 6.94 5.6 15 20 1025.8 0 16.2 24.6 35.3 92.2 81.4 278.5
07/05 21:40 10.2 71 6.76 5.2 13 20 1025.7 0 15.8 24.4 34.7 90.6 79.3 270.9
07/05 21:30 10.5 71 6.89 5.5 13 22 1025.5 0 16.1 24.5 35.1 91.6 80.7 275.7
07/05 21:20 10.6 69 6.74 5.2 15 20 1025.7 0 15.8 24.3 34.4 89.9 78.6 268.6
07/05 21:10 10.7 69 6.78 5.3 11 15 1025.4 0 15.8 24.3 34.5 90.2 79.0 270.0
07/05 21:00 10.7 69 6.78 5.3 13 26 1025.3 0 15.8 24.3 34.5 90.2 79.0 270.0
07/05 20:50 10.8 68 6.72 5.1 11 15 1025.3 0 15.7 24.2 34.2 89.4 78.1 266.9
07/05 20:40 11 68 6.81 5.3 17 24 1025.4 0 15.9 24.3 34.5 90.1 79.1 270.4
07/05 20:30 10.9 68 6.77 5.2 15 26 1025.7 0 15.8 24.2 34.4 89.9 78.7 269.0
07/05 20:20 10.9 68 6.77 5.2 19 24 1025.7 0 15.8 24.2 34.4 89.9 78.7 269.0
07/05 20:10 10.6 70 6.83 5.4 13 17 1025.6 0 15.9 24.4 34.8 90.8 79.8 272.7

Last Refresh: 08-May-2026 12:09:23

Bureau of Meteorology